sensor_id;sensor_type;location;lat;lon;timestamp;P1;durP1;ratioP1;P2;durP2;ratioP2
10481;SDS011;5288;42.334;23.876;2023-06-22T00:01:00;14.67;;;13.17;;
10481;SDS011;5288;42.334;23.876;2023-06-22T00:03:27;15.00;;;13.50;;
10481;SDS011;5288;42.334;23.876;2023-06-22T00:05:54;14.60;;;13.17;;
10481;SDS011;5288;42.334;23.876;2023-06-22T00:08:21;14.90;;;13.40;;
10481;SDS011;5288;42.334;23.876;2023-06-22T00:10:48;15.97;;;14.30;;
10481;SDS011;5288;42.334;23.876;2023-06-22T00:13:17;14.43;;;13.10;;
10481;SDS011;5288;42.334;23.876;2023-06-22T00:15:44;14.93;;;13.53;;
10481;SDS011;5288;42.334;23.876;2023-06-22T00:18:11;14.90;;;13.27;;
10481;SDS011;5288;42.334;23.876;2023-06-22T00:20:38;14.20;;;12.77;;
10481;SDS011;5288;42.334;23.876;2023-06-22T00:23:06;15.27;;;13.80;;
10481;SDS011;5288;42.334;23.876;2023-06-22T00:25:33;15.03;;;13.50;;
10481;SDS011;5288;42.334;23.876;2023-06-22T00:28:01;16.07;;;14.57;;
10481;SDS011;5288;42.334;23.876;2023-06-22T00:30:30;15.77;;;14.30;;
10481;SDS011;5288;42.334;23.876;2023-06-22T00:32:58;14.50;;;13.10;;
10481;SDS011;5288;42.334;23.876;2023-06-22T00:35:25;15.43;;;13.83;;
10481;SDS011;5288;42.334;23.876;2023-06-22T00:37:54;14.73;;;13.33;;
10481;SDS011;5288;42.334;23.876;2023-06-22T00:40:26;15.50;;;13.93;;
10481;SDS011;5288;42.334;23.876;2023-06-22T00:42:53;15.03;;;13.53;;
10481;SDS011;5288;42.334;23.876;2023-06-22T00:45:21;14.43;;;13.17;;
10481;SDS011;5288;42.334;23.876;2023-06-22T00:47:51;15.43;;;14.07;;
10481;SDS011;5288;42.334;23.876;2023-06-22T00:50:20;14.60;;;13.23;;
10481;SDS011;5288;42.334;23.876;2023-06-22T00:52:51;15.57;;;13.67;;
10481;SDS011;5288;42.334;23.876;2023-06-22T00:55:19;15.30;;;14.00;;
10481;SDS011;5288;42.334;23.876;2023-06-22T00:57:48;15.17;;;13.77;;
10481;SDS011;5288;42.334;23.876;2023-06-22T01:00:15;15.13;;;13.53;;
10481;SDS011;5288;42.334;23.876;2023-06-22T01:02:45;20.20;;;14.57;;
10481;SDS011;5288;42.334;23.876;2023-06-22T01:05:18;14.97;;;13.43;;
10481;SDS011;5288;42.334;23.876;2023-06-22T01:07:49;15.30;;;13.27;;
10481;SDS011;5288;42.334;23.876;2023-06-22T01:10:25;14.70;;;13.40;;
10481;SDS011;5288;42.334;23.876;2023-06-22T01:12:58;15.10;;;13.70;;
10481;SDS011;5288;42.334;23.876;2023-06-22T01:15:28;14.87;;;13.40;;
10481;SDS011;5288;42.334;23.876;2023-06-22T01:18:00;13.97;;;12.47;;
10481;SDS011;5288;42.334;23.876;2023-06-22T01:20:31;15.00;;;13.53;;
10481;SDS011;5288;42.334;23.876;2023-06-22T01:23:05;15.07;;;13.67;;
10481;SDS011;5288;42.334;23.876;2023-06-22T01:25:56;15.10;;;13.67;;
10481;SDS011;5288;42.334;23.876;2023-06-22T01:28:39;14.87;;;13.47;;
10481;SDS011;5288;42.334;23.876;2023-06-22T01:31:10;14.77;;;13.23;;
10481;SDS011;5288;42.334;23.876;2023-06-22T01:33:41;17.47;;;14.40;;
10481;SDS011;5288;42.334;23.876;2023-06-22T01:36:10;14.47;;;13.13;;
10481;SDS011;5288;42.334;23.876;2023-06-22T01:38:39;14.33;;;13.03;;
10481;SDS011;5288;42.334;23.876;2023-06-22T01:41:08;22.20;;;14.43;;
10481;SDS011;5288;42.334;23.876;2023-06-22T01:43:36;14.47;;;12.97;;
10481;SDS011;5288;42.334;23.876;2023-06-22T01:46:05;15.43;;;13.90;;
10481;SDS011;5288;42.334;23.876;2023-06-22T01:48:32;19.77;;;13.83;;
10481;SDS011;5288;42.334;23.876;2023-06-22T01:51:00;19.27;;;14.20;;
10481;SDS011;5288;42.334;23.876;2023-06-22T01:53:27;14.93;;;13.53;;
10481;SDS011;5288;42.334;23.876;2023-06-22T01:55:54;15.70;;;14.17;;
10481;SDS011;5288;42.334;23.876;2023-06-22T01:58:22;15.47;;;14.00;;
10481;SDS011;5288;42.334;23.876;2023-06-22T02:00:53;14.67;;;13.27;;
10481;SDS011;5288;42.334;23.876;2023-06-22T02:03:29;16.30;;;14.70;;
10481;SDS011;5288;42.334;23.876;2023-06-22T02:06:01;15.03;;;13.67;;
10481;SDS011;5288;42.334;23.876;2023-06-22T02:08:32;15.57;;;14.00;;
10481;SDS011;5288;42.334;23.876;2023-06-22T02:11:04;15.80;;;13.43;;
10481;SDS011;5288;42.334;23.876;2023-06-22T02:13:34;16.17;;;14.70;;
10481;SDS011;5288;42.334;23.876;2023-06-22T02:16:02;18.70;;;14.47;;
10481;SDS011;5288;42.334;23.876;2023-06-22T02:18:31;16.67;;;14.33;;
10481;SDS011;5288;42.334;23.876;2023-06-22T02:21:00;15.60;;;14.20;;
10481;SDS011;5288;42.334;23.876;2023-06-22T02:23:27;15.93;;;14.43;;
10481;SDS011;5288;42.334;23.876;2023-06-22T02:25:55;16.40;;;14.90;;
10481;SDS011;5288;42.334;23.876;2023-06-22T02:28:22;15.50;;;14.10;;
10481;SDS011;5288;42.334;23.876;2023-06-22T02:30:49;16.63;;;14.93;;
10481;SDS011;5288;42.334;23.876;2023-06-22T02:33:15;15.87;;;14.40;;
10481;SDS011;5288;42.334;23.876;2023-06-22T02:35:44;15.73;;;14.23;;
10481;SDS011;5288;42.334;23.876;2023-06-22T02:38:14;15.63;;;14.23;;
10481;SDS011;5288;42.334;23.876;2023-06-22T02:40:42;17.17;;;14.20;;
10481;SDS011;5288;42.334;23.876;2023-06-22T02:43:10;17.57;;;15.73;;
10481;SDS011;5288;42.334;23.876;2023-06-22T02:45:37;16.87;;;15.27;;
10481;SDS011;5288;42.334;23.876;2023-06-22T02:48:04;17.50;;;15.63;;
10481;SDS011;5288;42.334;23.876;2023-06-22T02:50:31;17.00;;;15.37;;
10481;SDS011;5288;42.334;23.876;2023-06-22T02:53:00;17.03;;;15.37;;
10481;SDS011;5288;42.334;23.876;2023-06-22T02:55:27;15.80;;;14.33;;
10481;SDS011;5288;42.334;23.876;2023-06-22T02:57:54;15.83;;;14.33;;
10481;SDS011;5288;42.334;23.876;2023-06-22T03:00:22;16.17;;;14.57;;
10481;SDS011;5288;42.334;23.876;2023-06-22T03:02:55;16.60;;;14.27;;
10481;SDS011;5288;42.334;23.876;2023-06-22T03:05:23;16.17;;;14.63;;
10481;SDS011;5288;42.334;23.876;2023-06-22T03:07:51;16.03;;;14.53;;
10481;SDS011;5288;42.334;23.876;2023-06-22T03:10:19;18.13;;;15.13;;
10481;SDS011;5288;42.334;23.876;2023-06-22T03:12:46;14.93;;;13.50;;
10481;SDS011;5288;42.334;23.876;2023-06-22T03:15:13;15.70;;;14.20;;
10481;SDS011;5288;42.334;23.876;2023-06-22T03:17:42;14.63;;;13.23;;
10481;SDS011;5288;42.334;23.876;2023-06-22T03:20:09;14.73;;;13.53;;
10481;SDS011;5288;42.334;23.876;2023-06-22T03:22:37;14.67;;;13.37;;
10481;SDS011;5288;42.334;23.876;2023-06-22T03:25:06;40.67;;;15.57;;
10481;SDS011;5288;42.334;23.876;2023-06-22T03:27:39;16.90;;;14.03;;
10481;SDS011;5288;42.334;23.876;2023-06-22T03:30:08;16.73;;;15.07;;
10481;SDS011;5288;42.334;23.876;2023-06-22T03:32:37;16.03;;;13.77;;
10481;SDS011;5288;42.334;23.876;2023-06-22T03:35:04;25.83;;;14.87;;
10481;SDS011;5288;42.334;23.876;2023-06-22T03:37:32;19.73;;;14.53;;
10481;SDS011;5288;42.334;23.876;2023-06-22T03:39:59;15.00;;;13.47;;
10481;SDS011;5288;42.334;23.876;2023-06-22T03:42:26;15.70;;;14.10;;
10481;SDS011;5288;42.334;23.876;2023-06-22T03:44:55;15.70;;;14.07;;
10481;SDS011;5288;42.334;23.876;2023-06-22T03:47:21;14.60;;;13.10;;
10481;SDS011;5288;42.334;23.876;2023-06-22T03:49:49;15.67;;;14.07;;
10481;SDS011;5288;42.334;23.876;2023-06-22T03:52:20;16.10;;;13.80;;
10481;SDS011;5288;42.334;23.876;2023-06-22T03:54:48;14.43;;;13.13;;
10481;SDS011;5288;42.334;23.876;2023-06-22T03:57:15;15.33;;;13.47;;
10481;SDS011;5288;42.334;23.876;2023-06-22T03:59:42;14.90;;;13.50;;
10481;SDS011;5288;42.334;23.876;2023-06-22T04:02:10;13.97;;;12.47;;
10481;SDS011;5288;42.334;23.876;2023-06-22T04:04:37;14.93;;;12.93;;
10481;SDS011;5288;42.334;23.876;2023-06-22T04:07:05;13.53;;;12.33;;
10481;SDS011;5288;42.334;23.876;2023-06-22T04:09:35;15.00;;;13.60;;
10481;SDS011;5288;42.334;23.876;2023-06-22T04:12:17;15.40;;;13.80;;
10481;SDS011;5288;42.334;23.876;2023-06-22T04:14:52;16.03;;;14.23;;
10481;SDS011;5288;42.334;23.876;2023-06-22T04:17:20;14.47;;;12.70;;
10481;SDS011;5288;42.334;23.876;2023-06-22T04:19:50;15.13;;;13.67;;
10481;SDS011;5288;42.334;23.876;2023-06-22T04:22:17;14.40;;;13.10;;
10481;SDS011;5288;42.334;23.876;2023-06-22T04:24:44;14.30;;;12.90;;
10481;SDS011;5288;42.334;23.876;2023-06-22T04:27:11;14.73;;;13.33;;
10481;SDS011;5288;42.334;23.876;2023-06-22T04:29:38;13.63;;;12.37;;
10481;SDS011;5288;42.334;23.876;2023-06-22T04:32:14;15.30;;;13.80;;
10481;SDS011;5288;42.334;23.876;2023-06-22T04:34:42;13.90;;;12.70;;
10481;SDS011;5288;42.334;23.876;2023-06-22T04:37:09;14.13;;;12.77;;
10481;SDS011;5288;42.334;23.876;2023-06-22T04:39:40;14.73;;;13.43;;
10481;SDS011;5288;42.334;23.876;2023-06-22T04:42:11;15.07;;;13.47;;
10481;SDS011;5288;42.334;23.876;2023-06-22T04:44:46;14.70;;;13.27;;
10481;SDS011;5288;42.334;23.876;2023-06-22T04:47:13;14.57;;;13.07;;
10481;SDS011;5288;42.334;23.876;2023-06-22T04:49:40;13.87;;;12.47;;
10481;SDS011;5288;42.334;23.876;2023-06-22T04:52:10;15.83;;;12.80;;
10481;SDS011;5288;42.334;23.876;2023-06-22T04:54:39;13.50;;;12.20;;
10481;SDS011;5288;42.334;23.876;2023-06-22T04:57:13;12.00;;;10.90;;
10481;SDS011;5288;42.334;23.876;2023-06-22T04:59:40;12.53;;;11.27;;
10481;SDS011;5288;42.334;23.876;2023-06-22T05:02:08;13.13;;;11.83;;
10481;SDS011;5288;42.334;23.876;2023-06-22T05:04:35;15.23;;;11.43;;
10481;SDS011;5288;42.334;23.876;2023-06-22T05:07:03;11.73;;;10.53;;
10481;SDS011;5288;42.334;23.876;2023-06-22T05:09:33;12.37;;;10.97;;
10481;SDS011;5288;42.334;23.876;2023-06-22T05:12:00;11.73;;;10.63;;
10481;SDS011;5288;42.334;23.876;2023-06-22T05:14:28;11.53;;;10.47;;
10481;SDS011;5288;42.334;23.876;2023-06-22T05:16:57;11.87;;;10.67;;
10481;SDS011;5288;42.334;23.876;2023-06-22T05:19:38;11.73;;;10.50;;
10481;SDS011;5288;42.334;23.876;2023-06-22T05:22:10;11.80;;;10.67;;
10481;SDS011;5288;42.334;23.876;2023-06-22T05:24:39;11.17;;;10.13;;
10481;SDS011;5288;42.334;23.876;2023-06-22T05:27:06;11.87;;;10.33;;
10481;SDS011;5288;42.334;23.876;2023-06-22T05:29:36;11.83;;;10.23;;
10481;SDS011;5288;42.334;23.876;2023-06-22T05:32:09;11.53;;;10.43;;
10481;SDS011;5288;42.334;23.876;2023-06-22T05:34:46;11.47;;;10.30;;
10481;SDS011;5288;42.334;23.876;2023-06-22T05:37:13;13.40;;;10.00;;
10481;SDS011;5288;42.334;23.876;2023-06-22T05:39:41;11.47;;;9.53;;
10481;SDS011;5288;42.334;23.876;2023-06-22T05:42:08;11.07;;;10.07;;
10481;SDS011;5288;42.334;23.876;2023-06-22T05:44:38;17.07;;;10.03;;
10481;SDS011;5288;42.334;23.876;2023-06-22T05:47:12;11.40;;;10.37;;
10481;SDS011;5288;42.334;23.876;2023-06-22T05:49:39;10.67;;;9.77;;
10481;SDS011;5288;42.334;23.876;2023-06-22T05:52:06;11.07;;;9.97;;
10481;SDS011;5288;42.334;23.876;2023-06-22T05:54:34;11.53;;;9.87;;
10481;SDS011;5288;42.334;23.876;2023-06-22T05:57:02;12.60;;;10.10;;
10481;SDS011;5288;42.334;23.876;2023-06-22T05:59:30;11.30;;;9.47;;
10481;SDS011;5288;42.334;23.876;2023-06-22T06:01:58;9.93;;;9.13;;
10481;SDS011;5288;42.334;23.876;2023-06-22T06:04:25;10.40;;;9.03;;
10481;SDS011;5288;42.334;23.876;2023-06-22T06:06:52;9.83;;;8.90;;
10481;SDS011;5288;42.334;23.876;2023-06-22T06:09:19;11.77;;;9.10;;
10481;SDS011;5288;42.334;23.876;2023-06-22T06:11:48;10.47;;;9.40;;
10481;SDS011;5288;42.334;23.876;2023-06-22T06:14:20;10.57;;;9.07;;
10481;SDS011;5288;42.334;23.876;2023-06-22T06:16:47;11.70;;;8.80;;
10481;SDS011;5288;42.334;23.876;2023-06-22T06:19:17;9.83;;;8.87;;
10481;SDS011;5288;42.334;23.876;2023-06-22T06:21:46;9.90;;;8.90;;
10481;SDS011;5288;42.334;23.876;2023-06-22T06:24:15;9.70;;;8.80;;
10481;SDS011;5288;42.334;23.876;2023-06-22T06:26:42;8.57;;;7.77;;
10481;SDS011;5288;42.334;23.876;2023-06-22T06:29:12;10.70;;;8.60;;
10481;SDS011;5288;42.334;23.876;2023-06-22T06:31:47;9.50;;;8.40;;
10481;SDS011;5288;42.334;23.876;2023-06-22T06:34:14;9.27;;;8.23;;
10481;SDS011;5288;42.334;23.876;2023-06-22T06:36:41;9.23;;;8.30;;
10481;SDS011;5288;42.334;23.876;2023-06-22T06:39:12;8.83;;;8.03;;
10481;SDS011;5288;42.334;23.876;2023-06-22T06:41:39;9.10;;;8.40;;
10481;SDS011;5288;42.334;23.876;2023-06-22T06:44:08;9.10;;;8.20;;
10481;SDS011;5288;42.334;23.876;2023-06-22T06:46:35;9.00;;;8.13;;
10481;SDS011;5288;42.334;23.876;2023-06-22T06:49:05;9.37;;;8.57;;
10481;SDS011;5288;42.334;23.876;2023-06-22T06:51:32;9.03;;;8.10;;
10481;SDS011;5288;42.334;23.876;2023-06-22T06:53:59;9.53;;;8.60;;
10481;SDS011;5288;42.334;23.876;2023-06-22T06:56:26;8.60;;;7.80;;
10481;SDS011;5288;42.334;23.876;2023-06-22T06:59:03;9.43;;;8.63;;
10481;SDS011;5288;42.334;23.876;2023-06-22T07:01:30;10.13;;;7.63;;
10481;SDS011;5288;42.334;23.876;2023-06-22T07:04:01;10.23;;;7.37;;
10481;SDS011;5288;42.334;23.876;2023-06-22T07:06:29;8.70;;;8.00;;
10481;SDS011;5288;42.334;23.876;2023-06-22T07:08:58;8.87;;;8.07;;
10481;SDS011;5288;42.334;23.876;2023-06-22T07:11:27;8.37;;;7.57;;
10481;SDS011;5288;42.334;23.876;2023-06-22T07:13:55;12.20;;;7.77;;
10481;SDS011;5288;42.334;23.876;2023-06-22T07:16:22;8.77;;;7.70;;
10481;SDS011;5288;42.334;23.876;2023-06-22T07:18:50;9.67;;;8.00;;
10481;SDS011;5288;42.334;23.876;2023-06-22T07:21:17;8.27;;;7.53;;
10481;SDS011;5288;42.334;23.876;2023-06-22T07:23:46;9.00;;;8.10;;
10481;SDS011;5288;42.334;23.876;2023-06-22T07:26:14;9.93;;;7.25;;
10481;SDS011;5288;42.334;23.876;2023-06-22T07:28:42;8.10;;;7.40;;
10481;SDS011;5288;42.334;23.876;2023-06-22T07:31:09;11.87;;;8.13;;
10481;SDS011;5288;42.334;23.876;2023-06-22T07:33:36;8.93;;;8.02;;
10481;SDS011;5288;42.334;23.876;2023-06-22T07:36:03;11.80;;;7.60;;
10481;SDS011;5288;42.334;23.876;2023-06-22T07:38:33;10.07;;;7.65;;
10481;SDS011;5288;42.334;23.876;2023-06-22T07:41:02;8.00;;;7.32;;
10481;SDS011;5288;42.334;23.876;2023-06-22T07:43:30;7.82;;;7.15;;
10481;SDS011;5288;42.334;23.876;2023-06-22T07:45:58;8.25;;;7.15;;
10481;SDS011;5288;42.334;23.876;2023-06-22T07:48:25;7.68;;;6.95;;
10481;SDS011;5288;42.334;23.876;2023-06-22T07:50:52;8.05;;;7.25;;
10481;SDS011;5288;42.334;23.876;2023-06-22T07:53:19;8.80;;;7.93;;
10481;SDS011;5288;42.334;23.876;2023-06-22T07:55:46;9.38;;;6.95;;
10481;SDS011;5288;42.334;23.876;2023-06-22T07:58:15;7.25;;;6.55;;
10481;SDS011;5288;42.334;23.876;2023-06-22T08:00:44;9.88;;;6.93;;
10481;SDS011;5288;42.334;23.876;2023-06-22T08:03:11;7.80;;;7.10;;
10481;SDS011;5288;42.334;23.876;2023-06-22T08:05:38;11.15;;;7.78;;
10481;SDS011;5288;42.334;23.876;2023-06-22T08:08:05;7.38;;;5.97;;
10481;SDS011;5288;42.334;23.876;2023-06-22T08:10:32;12.35;;;7.78;;
10481;SDS011;5288;42.334;23.876;2023-06-22T08:13:00;8.25;;;6.15;;
10481;SDS011;5288;42.334;23.876;2023-06-22T08:15:28;6.93;;;6.28;;
10481;SDS011;5288;42.334;23.876;2023-06-22T08:17:55;7.57;;;6.78;;
10481;SDS011;5288;42.334;23.876;2023-06-22T08:20:23;6.70;;;6.10;;
10481;SDS011;5288;42.334;23.876;2023-06-22T08:22:50;7.75;;;6.18;;
10481;SDS011;5288;42.334;23.876;2023-06-22T08:25:17;6.40;;;5.90;;
10481;SDS011;5288;42.334;23.876;2023-06-22T08:27:44;7.22;;;6.57;;
10481;SDS011;5288;42.334;23.876;2023-06-22T08:30:16;7.30;;;5.65;;
10481;SDS011;5288;42.334;23.876;2023-06-22T08:32:54;6.60;;;6.03;;
10481;SDS011;5288;42.334;23.876;2023-06-22T08:35:21;6.25;;;5.75;;
10481;SDS011;5288;42.334;23.876;2023-06-22T08:37:48;8.00;;;5.85;;
10481;SDS011;5288;42.334;23.876;2023-06-22T08:40:18;6.20;;;5.60;;
10481;SDS011;5288;42.334;23.876;2023-06-22T08:42:46;6.03;;;5.32;;
10481;SDS011;5288;42.334;23.876;2023-06-22T08:45:14;7.57;;;6.90;;
10481;SDS011;5288;42.334;23.876;2023-06-22T08:47:41;6.80;;;5.93;;
10481;SDS011;5288;42.334;23.876;2023-06-22T08:50:11;7.40;;;6.55;;
10481;SDS011;5288;42.334;23.876;2023-06-22T08:52:41;7.55;;;5.95;;
10481;SDS011;5288;42.334;23.876;2023-06-22T08:55:09;7.28;;;6.50;;
10481;SDS011;5288;42.334;23.876;2023-06-22T08:57:36;6.47;;;5.88;;
10481;SDS011;5288;42.334;23.876;2023-06-22T09:00:05;6.63;;;6.13;;
10481;SDS011;5288;42.334;23.876;2023-06-22T09:02:41;6.65;;;6.07;;
10481;SDS011;5288;42.334;23.876;2023-06-22T09:05:10;7.75;;;6.93;;
10481;SDS011;5288;42.334;23.876;2023-06-22T09:07:37;6.47;;;5.90;;
10481;SDS011;5288;42.334;23.876;2023-06-22T09:10:04;6.68;;;6.07;;
10481;SDS011;5288;42.334;23.876;2023-06-22T09:12:32;8.23;;;6.20;;
10481;SDS011;5288;42.334;23.876;2023-06-22T09:15:02;7.10;;;6.60;;
10481;SDS011;5288;42.334;23.876;2023-06-22T09:17:30;7.63;;;6.18;;
10481;SDS011;5288;42.334;23.876;2023-06-22T09:19:57;7.57;;;6.95;;
10481;SDS011;5288;42.334;23.876;2023-06-22T09:22:27;7.07;;;6.47;;
10481;SDS011;5288;42.334;23.876;2023-06-22T09:24:54;6.40;;;5.85;;
10481;SDS011;5288;42.334;23.876;2023-06-22T09:27:22;7.07;;;6.47;;
10481;SDS011;5288;42.334;23.876;2023-06-22T09:29:52;7.65;;;6.43;;
10481;SDS011;5288;42.334;23.876;2023-06-22T09:32:23;7.90;;;7.10;;
10481;SDS011;5288;42.334;23.876;2023-06-22T09:34:50;6.90;;;6.00;;
10481;SDS011;5288;42.334;23.876;2023-06-22T09:37:18;7.78;;;6.97;;
10481;SDS011;5288;42.334;23.876;2023-06-22T09:39:46;9.98;;;6.60;;
10481;SDS011;5288;42.334;23.876;2023-06-22T09:42:14;7.05;;;6.35;;
10481;SDS011;5288;42.334;23.876;2023-06-22T09:44:41;6.85;;;6.30;;
10481;SDS011;5288;42.334;23.876;2023-06-22T09:47:08;6.60;;;6.10;;
10481;SDS011;5288;42.334;23.876;2023-06-22T09:49:36;6.57;;;6.03;;
10481;SDS011;5288;42.334;23.876;2023-06-22T09:52:03;7.15;;;6.53;;
10481;SDS011;5288;42.334;23.876;2023-06-22T09:54:31;7.13;;;6.50;;
10481;SDS011;5288;42.334;23.876;2023-06-22T09:57:00;6.78;;;6.20;;
10481;SDS011;5288;42.334;23.876;2023-06-22T09:59:27;7.57;;;6.88;;
10481;SDS011;5288;42.334;23.876;2023-06-22T10:01:54;8.57;;;6.80;;
10481;SDS011;5288;42.334;23.876;2023-06-22T10:04:21;7.25;;;6.55;;
10481;SDS011;5288;42.334;23.876;2023-06-22T10:06:49;7.30;;;6.65;;
10481;SDS011;5288;42.334;23.876;2023-06-22T10:09:17;8.50;;;7.13;;
10481;SDS011;5288;42.334;23.876;2023-06-22T10:11:44;7.25;;;6.65;;
10481;SDS011;5288;42.334;23.876;2023-06-22T10:14:12;7.13;;;6.55;;
10481;SDS011;5288;42.334;23.876;2023-06-22T10:16:40;6.95;;;6.40;;
10481;SDS011;5288;42.334;23.876;2023-06-22T10:19:07;8.98;;;6.32;;
10481;SDS011;5288;42.334;23.876;2023-06-22T10:21:34;14.85;;;10.20;;
10481;SDS011;5288;42.334;23.876;2023-06-22T10:24:01;13.27;;;7.30;;
10481;SDS011;5288;42.334;23.876;2023-06-22T10:26:31;7.47;;;6.72;;
10481;SDS011;5288;42.334;23.876;2023-06-22T10:28:58;8.32;;;6.68;;
10481;SDS011;5288;42.334;23.876;2023-06-22T10:31:27;10.30;;;6.25;;
10481;SDS011;5288;42.334;23.876;2023-06-22T10:33:54;7.30;;;6.70;;
10481;SDS011;5288;42.334;23.876;2023-06-22T10:36:22;9.20;;;6.25;;
10481;SDS011;5288;42.334;23.876;2023-06-22T10:38:49;6.60;;;6.05;;
10481;SDS011;5288;42.334;23.876;2023-06-22T10:41:17;6.65;;;6.10;;
10481;SDS011;5288;42.334;23.876;2023-06-22T10:43:44;6.90;;;6.30;;
10481;SDS011;5288;42.334;23.876;2023-06-22T10:46:12;7.25;;;6.20;;
10481;SDS011;5288;42.334;23.876;2023-06-22T10:48:40;7.38;;;6.78;;
10481;SDS011;5288;42.334;23.876;2023-06-22T10:51:07;6.85;;;6.35;;
10481;SDS011;5288;42.334;23.876;2023-06-22T10:53:34;7.57;;;6.78;;
10481;SDS011;5288;42.334;23.876;2023-06-22T10:56:01;7.60;;;6.90;;
10481;SDS011;5288;42.334;23.876;2023-06-22T10:58:28;10.25;;;6.95;;
10481;SDS011;5288;42.334;23.876;2023-06-22T11:00:55;7.18;;;6.28;;
10481;SDS011;5288;42.334;23.876;2023-06-22T11:03:22;8.45;;;7.35;;
10481;SDS011;5288;42.334;23.876;2023-06-22T11:05:51;7.75;;;6.90;;
10481;SDS011;5288;42.334;23.876;2023-06-22T11:08:18;7.70;;;7.00;;
10481;SDS011;5288;42.334;23.876;2023-06-22T11:10:45;8.80;;;6.93;;
10481;SDS011;5288;42.334;23.876;2023-06-22T11:13:12;7.53;;;6.82;;
10481;SDS011;5288;42.334;23.876;2023-06-22T11:15:39;8.65;;;6.80;;
10481;SDS011;5288;42.334;23.876;2023-06-22T11:18:06;7.85;;;7.05;;
10481;SDS011;5288;42.334;23.876;2023-06-22T11:20:34;7.35;;;6.75;;
10481;SDS011;5288;42.334;23.876;2023-06-22T11:23:06;7.25;;;6.60;;
10481;SDS011;5288;42.334;23.876;2023-06-22T11:25:33;7.03;;;6.43;;
10481;SDS011;5288;42.334;23.876;2023-06-22T11:28:01;8.10;;;7.05;;
10481;SDS011;5288;42.334;23.876;2023-06-22T11:30:28;7.60;;;6.70;;
10481;SDS011;5288;42.334;23.876;2023-06-22T11:32:57;8.13;;;6.55;;
10481;SDS011;5288;42.334;23.876;2023-06-22T11:35:25;9.07;;;7.20;;
10481;SDS011;5288;42.334;23.876;2023-06-22T11:37:52;10.35;;;6.72;;
10481;SDS011;5288;42.334;23.876;2023-06-22T11:40:20;7.40;;;6.70;;
10481;SDS011;5288;42.334;23.876;2023-06-22T11:42:51;7.88;;;6.55;;
10481;SDS011;5288;42.334;23.876;2023-06-22T11:45:18;7.40;;;6.80;;
10481;SDS011;5288;42.334;23.876;2023-06-22T11:47:45;7.82;;;7.00;;
10481;SDS011;5288;42.334;23.876;2023-06-22T11:50:12;6.80;;;6.15;;
10481;SDS011;5288;42.334;23.876;2023-06-22T11:52:40;7.10;;;6.45;;
10481;SDS011;5288;42.334;23.876;2023-06-22T11:55:07;7.50;;;6.70;;
10481;SDS011;5288;42.334;23.876;2023-06-22T11:57:36;7.00;;;6.40;;
10481;SDS011;5288;42.334;23.876;2023-06-22T12:00:04;7.43;;;6.72;;
10481;SDS011;5288;42.334;23.876;2023-06-22T12:02:39;7.55;;;6.65;;
10481;SDS011;5288;42.334;23.876;2023-06-22T12:05:07;7.55;;;6.85;;
10481;SDS011;5288;42.334;23.876;2023-06-22T12:07:36;7.65;;;6.95;;
10481;SDS011;5288;42.334;23.876;2023-06-22T12:10:09;11.15;;;6.65;;
10481;SDS011;5288;42.334;23.876;2023-06-22T12:12:38;7.40;;;6.70;;
10481;SDS011;5288;42.334;23.876;2023-06-22T12:15:05;7.75;;;7.05;;
10481;SDS011;5288;42.334;23.876;2023-06-22T12:17:33;8.40;;;7.57;;
10481;SDS011;5288;42.334;23.876;2023-06-22T12:20:00;8.00;;;7.30;;
10481;SDS011;5288;42.334;23.876;2023-06-22T12:22:30;8.07;;;7.38;;
10481;SDS011;5288;42.334;23.876;2023-06-22T12:24:57;8.13;;;7.30;;
10481;SDS011;5288;42.334;23.876;2023-06-22T12:27:24;8.23;;;7.63;;
10481;SDS011;5288;42.334;23.876;2023-06-22T12:29:53;7.82;;;7.13;;
10481;SDS011;5288;42.334;23.876;2023-06-22T12:32:20;7.65;;;6.95;;
10481;SDS011;5288;42.334;23.876;2023-06-22T12:34:48;7.65;;;7.05;;
10481;SDS011;5288;42.334;23.876;2023-06-22T12:37:17;8.07;;;7.20;;
10481;SDS011;5288;42.334;23.876;2023-06-22T12:39:56;8.82;;;7.90;;
10481;SDS011;5288;42.334;23.876;2023-06-22T12:42:23;8.40;;;7.70;;
10481;SDS011;5288;42.334;23.876;2023-06-22T12:44:54;8.55;;;7.00;;
10481;SDS011;5288;42.334;23.876;2023-06-22T12:47:20;8.23;;;7.47;;
10481;SDS011;5288;42.334;23.876;2023-06-22T12:49:48;7.95;;;7.25;;
10481;SDS011;5288;42.334;23.876;2023-06-22T12:52:15;8.65;;;7.85;;
10481;SDS011;5288;42.334;23.876;2023-06-22T12:54:42;10.07;;;7.57;;
10481;SDS011;5288;42.334;23.876;2023-06-22T12:57:09;9.10;;;7.90;;
10481;SDS011;5288;42.334;23.876;2023-06-22T12:59:38;8.73;;;7.97;;
10481;SDS011;5288;42.334;23.876;2023-06-22T13:02:06;8.25;;;7.45;;
10481;SDS011;5288;42.334;23.876;2023-06-22T13:04:33;8.43;;;7.60;;
10481;SDS011;5288;42.334;23.876;2023-06-22T13:07:00;9.20;;;8.30;;
10481;SDS011;5288;42.334;23.876;2023-06-22T13:09:27;8.50;;;7.57;;
10481;SDS011;5288;42.334;23.876;2023-06-22T13:11:55;8.20;;;7.57;;
10481;SDS011;5288;42.334;23.876;2023-06-22T13:14:22;8.77;;;7.68;;
10481;SDS011;5288;42.334;23.876;2023-06-22T13:16:49;9.93;;;8.35;;
10481;SDS011;5288;42.334;23.876;2023-06-22T13:19:17;13.23;;;8.27;;
10481;SDS011;5288;42.334;23.876;2023-06-22T13:21:45;9.88;;;8.18;;
10481;SDS011;5288;42.334;23.876;2023-06-22T13:24:12;14.82;;;8.50;;
10481;SDS011;5288;42.334;23.876;2023-06-22T13:26:39;13.27;;;8.18;;
10481;SDS011;5288;42.334;23.876;2023-06-22T13:29:06;10.05;;;8.40;;
10481;SDS011;5288;42.334;23.876;2023-06-22T13:31:33;9.13;;;8.07;;
10481;SDS011;5288;42.334;23.876;2023-06-22T13:34:00;8.52;;;7.80;;
10481;SDS011;5288;42.334;23.876;2023-06-22T13:36:29;11.60;;;8.57;;
10481;SDS011;5288;42.334;23.876;2023-06-22T13:38:56;9.50;;;8.63;;
10481;SDS011;5288;42.334;23.876;2023-06-22T13:41:23;9.15;;;8.18;;
10481;SDS011;5288;42.334;23.876;2023-06-22T13:43:50;9.40;;;8.52;;
10481;SDS011;5288;42.334;23.876;2023-06-22T13:46:17;8.85;;;8.10;;
10481;SDS011;5288;42.334;23.876;2023-06-22T13:48:44;9.35;;;8.35;;
10481;SDS011;5288;42.334;23.876;2023-06-22T13:51:11;9.48;;;8.52;;
10481;SDS011;5288;42.334;23.876;2023-06-22T13:53:39;11.30;;;7.80;;
10481;SDS011;5288;42.334;23.876;2023-06-22T13:56:06;8.20;;;7.50;;
10481;SDS011;5288;42.334;23.876;2023-06-22T13:58:33;10.20;;;8.10;;
10481;SDS011;5288;42.334;23.876;2023-06-22T14:01:00;8.38;;;7.53;;
10481;SDS011;5288;42.334;23.876;2023-06-22T14:03:27;9.65;;;8.65;;
10481;SDS011;5288;42.334;23.876;2023-06-22T14:05:54;10.05;;;8.77;;
10481;SDS011;5288;42.334;23.876;2023-06-22T14:08:23;10.60;;;9.35;;
10481;SDS011;5288;42.334;23.876;2023-06-22T14:10:51;12.00;;;9.52;;
10481;SDS011;5288;42.334;23.876;2023-06-22T14:13:19;9.95;;;8.95;;
10481;SDS011;5288;42.334;23.876;2023-06-22T14:15:46;9.95;;;9.05;;
10481;SDS011;5288;42.334;23.876;2023-06-22T14:18:14;10.70;;;9.27;;
10481;SDS011;5288;42.334;23.876;2023-06-22T14:20:41;12.13;;;9.65;;
10481;SDS011;5288;42.334;23.876;2023-06-22T14:23:08;12.13;;;9.05;;
10481;SDS011;5288;42.334;23.876;2023-06-22T14:25:35;10.00;;;8.88;;
10481;SDS011;5288;42.334;23.876;2023-06-22T14:28:04;9.73;;;8.82;;
10481;SDS011;5288;42.334;23.876;2023-06-22T14:30:31;10.20;;;9.13;;
10481;SDS011;5288;42.334;23.876;2023-06-22T14:32:58;13.93;;;8.70;;
10481;SDS011;5288;42.334;23.876;2023-06-22T14:35:25;12.05;;;8.90;;
10481;SDS011;5288;42.334;23.876;2023-06-22T14:37:52;13.32;;;8.82;;
10481;SDS011;5288;42.334;23.876;2023-06-22T14:40:19;10.23;;;9.23;;
10481;SDS011;5288;42.334;23.876;2023-06-22T14:42:46;11.48;;;9.60;;